createdAt,value
2022-07-26T00:03:15.611Z,0.00
2022-07-26T00:08:47.442Z,0.00
2022-07-26T00:14:19.119Z,0.00
2022-07-26T00:19:50.887Z,0.00
2022-07-26T00:33:14.369Z,0.00
2022-07-26T00:38:46.325Z,0.00
2022-07-26T00:44:18.172Z,0.00
2022-07-26T00:49:49.670Z,0.00
2022-07-26T00:55:21.384Z,0.00
2022-07-26T03:01:36.093Z,0.00
2022-07-26T03:07:07.965Z,0.00
2022-07-26T03:12:39.737Z,0.00
2022-07-26T03:18:11.746Z,0.00
2022-07-26T03:23:43.931Z,0.00
2022-07-26T03:29:16.023Z,0.00
2022-07-26T03:34:47.797Z,0.00
2022-07-26T03:40:19.292Z,0.00
2022-07-26T03:51:20.682Z,0.00
2022-07-26T03:56:52.376Z,3.00
2022-07-26T04:02:24.041Z,6.00
2022-07-26T04:07:55.887Z,11.00
2022-07-26T04:13:28.049Z,22.00
2022-07-26T04:18:59.948Z,29.01
2022-07-26T04:24:31.968Z,28.56
2022-07-26T04:35:33.491Z,34.69
2022-07-26T04:41:05.450Z,41.82
2022-07-26T04:46:37.339Z,44.52
2022-07-26T04:52:08.793Z,51.53
2022-07-26T04:57:40.756Z,54.53
2022-07-26T05:03:12.280Z,54.63
2022-07-26T05:08:45.021Z,58.64
2022-07-26T05:14:16.988Z,60.19
2022-07-26T05:19:49.256Z,54.51
2022-07-26T05:25:20.526Z,55.96
2022-07-26T05:30:52.495Z,61.29
2022-07-26T05:36:24.215Z,48.93
2022-07-26T05:41:55.929Z,47.38
2022-07-26T05:47:27.584Z,59.74
2022-07-26T05:52:59.518Z,58.29
2022-07-26T05:58:31.548Z,51.38
2022-07-26T06:04:03.491Z,46.92
2022-07-26T06:09:35.775Z,50.85
2022-07-26T06:15:15.360Z,88.16
2022-07-26T06:20:39.073Z,85.52
2022-07-26T06:26:11.279Z,97.23
2022-07-26T06:31:43.384Z,119.05
2022-07-26T06:37:14.800Z,120.38
2022-07-26T06:42:46.856Z,145.94
2022-07-26T06:48:18.884Z,131.93
2022-07-26T06:53:50.614Z,128.03
2022-07-26T06:59:22.879Z,143.07
2022-07-26T07:04:54.960Z,171.45
2022-07-26T07:10:26.897Z,169.53
2022-07-26T07:15:58.943Z,146.26
2022-07-26T07:21:32.641Z,113.52
2022-07-26T07:27:04.735Z,107.28
2022-07-26T07:32:36.818Z,124.54
2022-07-26T07:38:08.612Z,124.69
2022-07-26T07:43:40.445Z,161.40
2022-07-26T07:49:12.648Z,237.60
2022-07-26T07:54:44.128Z,291.50
2022-07-26T08:00:15.839Z,381.42
2022-07-26T08:05:49.995Z,242.21
2022-07-26T08:11:19.352Z,303.62
2022-07-26T08:16:51.416Z,275.81
2022-07-26T08:22:23.114Z,228.27
2022-07-26T08:28:30.601Z,198.79
2022-07-26T08:33:26.939Z,169.93
2022-07-26T08:38:58.883Z,158.69
2022-07-26T08:50:00.030Z,240.59
2022-07-26T08:55:50.301Z,286.07
2022-07-26T09:01:03.787Z,346.04
2022-07-26T09:06:36.082Z,375.06
2022-07-26T09:12:07.792Z,395.82
2022-07-26T09:34:08.656Z,447.06
2022-07-26T09:39:40.086Z,463.85
2022-07-26T09:45:12.186Z,455.49
2022-07-26T09:50:43.979Z,817.02
2022-07-26T09:56:16.936Z,1025.69
2022-07-26T10:01:48.590Z,947.33
2022-07-26T10:07:20.286Z,903.08
2022-07-26T10:12:52.405Z,880.31
2022-07-26T10:18:23.951Z,775.59
2022-07-26T10:23:55.984Z,843.52
2022-07-26T10:29:27.642Z,871.29
2022-07-26T10:34:59.542Z,820.78
2022-07-26T10:40:31.583Z,735.07
2022-07-26T10:46:03.873Z,648.80
2022-07-26T10:51:35.291Z,688.90
2022-07-26T10:57:07.116Z,669.40
2022-07-26T11:02:39.116Z,689.20
2022-07-26T11:08:10.815Z,682.06
2022-07-26T11:13:42.587Z,797.64
2022-07-26T11:19:14.223Z,683.24
2022-07-26T11:24:46.272Z,609.35
2022-07-26T11:30:18.355Z,579.83
2022-07-26T11:35:50.290Z,428.64
2022-07-26T11:41:34.259Z,344.44
2022-07-26T11:46:54.143Z,357.44
2022-07-26T11:52:25.977Z,395.54
2022-07-26T11:57:57.683Z,337.81
2022-07-26T12:03:29.594Z,326.79
2022-07-26T12:09:01.252Z,413.86
2022-07-26T12:14:33.226Z,526.44
2022-07-26T12:20:05.032Z,524.87
2022-07-26T12:25:36.480Z,525.93
2022-07-26T12:31:08.484Z,622.06
2022-07-26T12:36:40.370Z,555.42
2022-07-26T12:42:12.131Z,587.06
2022-07-26T12:47:43.717Z,511.86
2022-07-26T12:53:15.468Z,482.77
2022-07-26T12:58:47.213Z,539.84
2022-07-26T13:04:18.960Z,494.13
2022-07-26T13:10:14.018Z,493.75
2022-07-26T13:15:23.598Z,584.38
2022-07-26T13:20:55.307Z,536.00
2022-07-26T13:26:26.923Z,542.57
2022-07-26T13:31:58.761Z,570.57
2022-07-26T13:37:30.592Z,456.32
2022-07-26T13:39:42.279Z,422.53
2022-07-26T13:45:14.278Z,470.92
2022-07-26T13:50:45.966Z,438.61
2022-07-26T13:56:17.101Z,386.06
2022-07-26T14:01:48.578Z,279.19
2022-07-26T14:07:19.816Z,279.43
2022-07-26T14:12:51.312Z,256.11
2022-07-26T14:18:23.128Z,247.81
2022-07-26T14:23:55.250Z,250.58
2022-07-26T14:29:26.751Z,313.08
2022-07-26T14:45:59.493Z,362.52
2022-07-26T14:51:31.095Z,330.78
2022-07-26T14:57:03.289Z,313.58
2022-07-26T15:02:34.984Z,226.93
2022-07-26T15:08:06.483Z,286.92
2022-07-26T15:13:38.456Z,284.91
2022-07-26T15:19:09.986Z,254.10
2022-07-26T15:24:41.490Z,235.71
2022-07-26T15:30:14.801Z,200.44
2022-07-26T15:35:44.928Z,227.86
2022-07-26T15:41:16.694Z,300.87
2022-07-26T15:46:48.662Z,289.09
2022-07-26T15:52:20.313Z,285.42
2022-07-26T15:57:52.263Z,299.25
2022-07-26T16:03:24.336Z,289.48
2022-07-26T16:09:19.068Z,285.91
2022-07-26T16:20:03.296Z,250.74
2022-07-26T16:25:35.124Z,246.41
2022-07-26T16:31:06.788Z,243.57
2022-07-26T16:36:38.673Z,226.39
2022-07-26T16:42:10.304Z,202.49
2022-07-26T16:53:13.336Z,168.88
2022-07-26T16:58:43.522Z,156.21
2022-07-26T17:09:44.603Z,103.24
2022-07-26T17:20:45.869Z,85.86
2022-07-26T17:26:17.828Z,89.99
2022-07-26T17:31:49.143Z,82.63
2022-07-26T17:37:21.431Z,62.49
2022-07-26T17:42:51.815Z,57.95
2022-07-26T17:48:23.389Z,55.25
2022-07-26T17:53:55.419Z,62.03
2022-07-26T17:59:26.863Z,52.67
2022-07-26T18:04:59.068Z,54.12
2022-07-26T18:10:30.394Z,46.42
2022-07-26T18:16:05.934Z,41.17
2022-07-26T18:21:34.145Z,44.05
2022-07-26T18:27:06.324Z,45.92
2022-07-26T18:32:38.606Z,41.79
2022-07-26T18:38:10.598Z,34.79
2022-07-26T18:43:42.113Z,32.78
2022-07-26T18:49:19.739Z,27.00
2022-07-26T18:54:45.520Z,18.00
2022-07-26T19:00:17.564Z,11.00
2022-07-26T19:05:48.906Z,4.00
2022-07-26T19:11:20.590Z,0.00
2022-07-26T19:16:52.511Z,0.00
2022-07-26T19:22:24.393Z,0.00
2022-07-26T19:27:56.243Z,0.00
2022-07-26T19:33:28.166Z,0.00
2022-07-26T19:38:59.529Z,0.00
2022-07-26T19:44:31.602Z,0.00
2022-07-26T19:50:03.087Z,0.00
2022-07-26T19:55:34.996Z,0.00
2022-07-26T20:01:06.727Z,0.00
2022-07-26T20:06:38.617Z,0.00
2022-07-26T20:12:10.584Z,0.00
2022-07-26T20:17:42.310Z,0.00
2022-07-26T20:23:14.132Z,0.00
2022-07-26T20:28:45.916Z,0.00
2022-07-26T20:34:17.845Z,0.00
2022-07-26T20:39:49.729Z,0.00
2022-07-26T20:45:21.731Z,0.00
2022-07-26T20:50:53.409Z,0.00
2022-07-26T20:56:25.182Z,0.00
2022-07-26T21:01:57.191Z,0.00
2022-07-26T21:07:57.228Z,0.00
2022-07-26T21:13:00.698Z,0.00
2022-07-26T21:18:32.717Z,0.00
2022-07-26T21:24:04.624Z,0.00
2022-07-26T21:29:39.240Z,0.00
2022-07-26T21:35:08.409Z,0.00
2022-07-26T21:40:40.125Z,0.00
2022-07-26T21:46:13.035Z,0.00
2022-07-26T21:51:45.270Z,0.00
2022-07-26T21:57:17.682Z,0.00
2022-07-26T22:02:49.743Z,0.00
2022-07-26T22:08:21.274Z,0.00
2022-07-26T22:13:52.777Z,0.00
2022-07-26T22:19:24.447Z,0.00
2022-07-26T22:24:56.266Z,0.00
2022-07-26T22:30:28.306Z,0.00
2022-07-26T22:36:00.113Z,0.00
2022-07-26T22:41:32.639Z,0.00
2022-07-26T22:47:03.615Z,0.00
2022-07-26T22:52:35.321Z,0.00
2022-07-26T22:58:06.970Z,0.00
2022-07-26T23:03:39.425Z,0.00
2022-07-26T23:09:11.851Z,0.00
2022-07-26T23:14:43.461Z,0.00
2022-07-26T23:20:15.211Z,0.00
2022-07-26T23:25:47.651Z,0.00
2022-07-26T23:31:19.506Z,0.00
2022-07-26T23:36:51.270Z,0.00
2022-07-26T23:42:23.625Z,0.00
2022-07-26T23:47:55.601Z,0.00
2022-07-26T23:53:27.382Z,0.00
2022-07-26T23:58:59.154Z,0.00
